Time;durP1;ratioP1;P1;durP2;ratioP2;P2;SDS_P1;SDS_P2;PMS_P1;PMS_P2;Temp;Humidity;BMP_temperature;BMP_pressure;BME280_temperature;BME280_humidity;BME280_pressure;Samples;Min_cycle;Max_cycle;Signal;HPM_P1;HPM_P2
2024/03/04 00:01:21;;;;;;;;;22.00;17.00;;;;;5.64;72.06;99971.12;112504;244;39988;-49
2024/03/04 00:04:01;;;;;;;;;28.75;19.50;;;;;5.61;72.15;99968.91;112314;241;160412;-49
2024/03/04 00:06:41;;;;;;;;;12.00;10.00;;;;;5.59;72.36;99967.71;112404;244;39502;-50
2024/03/04 00:09:17;;;;;;;;;18.00;13.33;;;;;5.55;72.35;99971.36;112388;244;40393;-49
2024/03/04 00:11:53;;;;;;;;;25.00;20.00;;;;;5.52;72.52;99971.67;112287;240;160622;-50
2024/03/04 00:14:31;;;;;;;;;18.25;13.75;;;;;5.51;72.47;99970.55;112535;244;39384;-50
2024/03/04 00:17:08;;;;;;;;;21.50;16.50;;;;;5.49;72.68;99974.31;112312;242;162070;-53
2024/03/04 00:19:43;;;;;;;;;19.00;14.50;;;;;5.43;72.76;99967.04;112415;244;39668;-53
2024/03/04 00:22:24;;;;;;;;;23.00;18.00;;;;;5.43;72.81;99959.14;112268;241;161073;-51
2024/03/04 00:25:05;;;;;;;;;19.50;14.50;;;;;5.40;73.01;99952.85;112413;244;40520;-52
2024/03/04 00:27:45;;;;;;;;;19.33;15.67;;;;;5.38;73.13;99949.70;112311;241;160409;-50
2024/03/04 00:30:20;;;;;;;;;18.67;14.00;;;;;5.34;73.16;99942.46;112347;244;39319;-50
2024/03/04 00:32:56;;;;;;;;;28.00;21.00;;;;;5.27;73.35;99942.29;112420;244;40605;-52
2024/03/04 00:35:38;;;;;;;;;19.00;15.00;;;;;5.23;73.25;99939.55;112318;240;160420;-52
2024/03/04 00:38:17;;;;;;;;;30.00;22.00;;;;;5.19;73.43;99934.45;112501;244;39621;-54
2024/03/04 00:41:07;;;;;;;;;22.50;18.25;;;;;5.14;73.52;99933.95;112301;242;160278;-51
2024/03/04 00:43:53;;;;;;;;;16.00;12.25;;;;;5.10;73.69;99936.12;112433;244;39228;-51
2024/03/04 00:46:31;;;;;;;;;16.33;12.33;;;;;5.08;73.69;99934.61;112298;241;160201;-52
2024/03/04 00:49:06;;;;;;;;;19.00;14.00;;;;;5.05;73.75;99928.45;112416;244;40607;-53
2024/03/04 00:51:47;;;;;;;;;16.00;13.00;;;;;5.05;73.81;99929.39;112330;241;160372;-53
2024/03/04 00:54:21;;;;;;;;;17.00;12.00;;;;;5.04;73.96;99933.94;112398;244;40326;-54
2024/03/04 00:56:57;;;;;;;;;22.25;18.00;;;;;5.05;73.92;99938.73;112454;244;41424;-51
2024/03/04 00:59:37;;;;;;;;;15.25;12.25;;;;;5.03;73.98;99944.04;112265;241;161033;-51
2024/03/04 01:02:21;;;;;;;;;27.00;20.00;;;;;5.04;74.04;99943.44;112498;244;39419;-50
2024/03/04 01:04:57;;;;;;;;;24.00;18.00;;;;;5.04;74.29;99938.45;112243;242;161504;-50
2024/03/04 01:07:32;;;;;;;;;18.67;14.67;;;;;5.08;74.42;99936.32;112393;244;39778;-52
2024/03/04 01:10:08;;;;;;;;;21.67;14.33;;;;;5.14;74.39;99937.33;112257;241;160029;-53
2024/03/04 01:12:49;;;;;;;;;19.50;15.50;;;;;5.17;74.42;99938.77;112378;244;39884;-51
2024/03/04 01:15:33;;;;;;;;;25.00;19.00;;;;;5.16;74.44;99928.86;112410;244;39494;-51
2024/03/04 01:18:09;;;;;;;;;23.00;18.25;;;;;5.16;74.40;99929.94;112469;244;39553;-50
2024/03/04 01:20:48;;;;;;;;;25.50;19.00;;;;;5.17;74.37;99933.21;112417;244;39799;-50
2024/03/04 01:23:32;;;;;;;;;23.00;18.00;;;;;5.15;74.33;99937.00;112243;242;161364;-56
2024/03/04 01:26:23;;;;;;;;;19.75;13.00;;;;;5.11;74.42;99936.71;112434;245;39304;-52
2024/03/04 01:29:03;;;;;;;;;15.25;11.50;;;;;5.07;74.42;99939.99;112311;242;160311;-52
2024/03/04 01:31:44;;;;;;;;;20.00;14.33;;;;;5.02;74.49;99942.05;112465;245;39091;-53
2024/03/04 01:34:24;;;;;;;;;20.33;15.00;;;;;5.01;74.53;99947.98;112312;242;160433;-53
2024/03/04 01:37:03;;;;;;;;;21.00;16.00;;;;;5.00;74.46;99949.89;112440;246;39589;-50
2024/03/04 01:39:38;;;;;;;;;20.25;15.00;;;;;4.98;74.58;99943.84;112315;242;160469;-49
2024/03/04 01:42:20;;;;;;;;;19.00;15.00;;;;;5.00;74.63;99936.05;112395;245;39540;-52
2024/03/04 01:44:57;;;;;;;;;18.25;14.00;;;;;4.98;74.61;99919.77;112414;245;39950;-53
2024/03/04 01:47:39;;;;;;;;;11.00;9.00;;;;;4.97;74.69;99921.38;112381;245;160632;-52
2024/03/04 01:50:22;;;;;;;;;14.25;11.00;;;;;4.92;74.70;99924.02;112394;246;40168;-52
2024/03/04 01:53:06;;;;;;;;;18.67;14.00;;;;;4.92;74.75;99921.74;112337;242;160859;-52
2024/03/04 01:55:43;;;;;;;;;17.75;13.00;;;;;4.92;74.81;99926.12;112437;246;39898;-53
2024/03/04 01:58:20;;;;;;;;;20.00;15.00;;;;;4.93;74.89;99927.67;112267;242;160770;-54
2024/03/04 02:01:01;;;;;;;;;18.00;15.00;;;;;4.95;74.97;99929.77;112413;245;40371;-51
2024/03/04 02:03:43;;;;;;;;;18.33;14.33;;;;;4.99;75.01;99928.67;112291;245;161729;-50
2024/03/04 02:06:19;;;;;;;;;22.00;15.33;;;;;5.03;75.01;99921.56;112466;245;40156;-55
2024/03/04 02:08:57;;;;;;;;;21.00;15.00;;;;;4.99;75.09;99914.36;112317;246;41283;-53
2024/03/04 02:11:37;;;;;;;;;15.33;11.67;;;;;5.00;75.08;99916.02;112246;242;160478;-53
2024/03/04 02:14:20;;;;;;;;;15.75;12.50;;;;;5.01;75.10;99916.63;112409;245;39511;-54
2024/03/04 02:16:56;;;;;;;;;17.33;13.67;;;;;4.97;75.13;99916.69;112293;242;160119;-53
2024/03/04 02:19:43;;;;;;;;;26.00;19.33;;;;;4.96;75.04;99918.61;112426;245;39249;-54
2024/03/04 02:22:27;;;;;;;;;17.50;13.00;;;;;4.95;75.12;99918.39;112250;242;161985;-53
2024/03/04 02:25:03;;;;;;;;;19.00;14.25;;;;;4.95;75.16;99918.90;112391;243;40159;-52
2024/03/04 02:27:45;;;;;;;;;21.00;17.00;;;;;4.95;75.21;99927.48;112275;240;160529;-53
2024/03/04 02:30:20;;;;;;;;;20.00;14.00;;;;;4.93;75.26;99929.24;112396;243;40453;-54
2024/03/04 02:33:02;;;;;;;;;19.25;14.75;;;;;4.93;75.23;99926.58;112435;244;40049;-53
2024/03/04 02:35:45;;;;;;;;;19.50;15.75;;;;;4.91;75.36;99920.38;112254;241;160293;-53
2024/03/04 02:38:27;;;;;;;;;20.75;16.50;;;;;4.90;75.36;99919.90;112492;244;39938;-53
2024/03/04 02:41:05;;;;;;;;;16.67;13.00;;;;;4.87;75.59;99924.36;112299;242;160360;-51
2024/03/04 02:43:42;;;;;;;;;28.00;20.67;;;;;4.81;76.09;99927.50;112491;244;40167;-51
2024/03/04 02:46:21;;;;;;;;;19.25;15.50;;;;;4.78;76.28;99928.20;112339;241;161204;-52
2024/03/04 02:49:05;;;;;;;;;20.00;16.00;;;;;4.83;76.53;99927.52;112447;244;40982;-52
2024/03/04 02:51:50;;;;;;;;;19.50;14.00;;;;;4.87;76.69;99923.34;112415;242;161135;-50
2024/03/04 02:54:29;;;;;;;;;17.00;13.00;;;;;4.87;77.12;99923.84;112429;244;41311;-50
2024/03/04 02:57:08;;;;;;;;;23.25;16.00;;;;;4.85;77.51;99920.39;112569;244;39186;-50
2024/03/04 02:59:46;;;;;;;;;22.67;15.00;;;;;4.82;77.95;99914.63;112314;241;161177;-50
2024/03/04 03:02:25;;;;;;;;;27.25;21.00;;;;;4.85;78.05;99911.06;112597;244;40062;-53
2024/03/04 03:05:06;;;;;;;;;22.00;17.00;;;;;4.85;78.38;99909.95;112373;242;162251;-53
2024/03/04 03:07:44;;;;;;;;;22.75;18.50;;;;;4.86;78.39;99908.09;112555;244;39055;-50
2024/03/04 03:10:22;;;;;;;;;19.00;14.00;;;;;4.88;78.29;99914.98;112421;241;160771;-50
2024/03/04 03:13:04;;;;;;;;;27.00;20.00;;;;;4.82;78.85;99918.34;112471;244;39428;-50
2024/03/04 03:15:41;;;;;;;;;28.00;19.75;;;;;4.74;78.72;99922.19;112419;242;161319;-50
2024/03/04 03:18:25;;;;;;;;;18.00;13.00;;;;;4.75;78.85;99920.01;112373;244;40046;-52
2024/03/04 03:21:06;;;;;;;;;16.00;13.00;;;;;4.70;78.94;99917.51;112532;244;39341;-52
2024/03/04 03:23:46;;;;;;;;;21.00;15.00;;;;;4.69;78.80;99915.31;112234;241;161256;-52
2024/03/04 03:26:26;;;;;;;;;18.00;14.00;;;;;4.69;78.74;99910.82;112396;244;39489;-53
2024/03/04 03:29:06;;;;;;;;;23.75;17.50;;;;;4.69;79.20;99912.77;112366;242;161253;-53
2024/03/04 03:31:49;;;;;;;;;21.00;16.00;;;;;4.69;79.08;99913.46;112513;244;40139;-52
2024/03/04 03:34:29;;;;;;;;;18.75;13.50;;;;;4.68;79.16;99915.70;112346;242;160673;-52
2024/03/04 03:37:09;;;;;;;;;20.00;15.50;;;;;4.71;79.31;99922.38;112470;244;40151;-50
2024/03/04 03:39:50;;;;;;;;;17.00;14.00;;;;;4.71;79.35;99923.10;112364;242;160811;-50
2024/03/04 03:42:27;;;;;;;;;15.75;12.00;;;;;4.74;79.40;99921.48;112413;245;40579;-53
2024/03/04 03:45:03;;;;;;;;;19.00;14.00;;;;;4.75;79.25;99921.93;112409;244;39244;-53
2024/03/04 03:47:39;;;;;;;;;30.00;21.00;;;;;4.73;79.15;99924.95;112275;240;160254;-51
2024/03/04 03:50:13;;;;;;;;;24.00;16.50;;;;;4.73;79.24;99924.27;112527;244;39340;-51
2024/03/04 03:52:53;;;;;;;;;17.50;13.00;;;;;4.73;79.20;99927.14;112408;241;160304;-53
2024/03/04 03:55:30;;;;;;;;;31.00;21.75;;;;;4.70;79.15;99926.23;112524;244;40346;-53
2024/03/04 03:58:06;;;;;;;;;20.00;16.00;;;;;4.67;79.12;99927.14;112436;244;160712;-54
2024/03/04 04:00:44;;;;;;;;;17.00;14.00;;;;;4.61;79.15;99925.81;112502;244;39347;-53
2024/03/04 04:03:30;;;;;;;;;14.00;11.33;;;;;4.57;79.22;99932.48;112575;244;41301;-50
2024/03/04 04:06:13;;;;;;;;;20.50;14.25;;;;;4.55;79.29;99935.53;112419;244;41106;-52
2024/03/04 04:08:51;;;;;;;;;24.00;18.00;;;;;4.52;79.22;99933.83;112525;244;40033;-53
2024/03/04 04:11:26;;;;;;;;;23.50;17.00;;;;;4.46;79.60;99931.09;112298;241;161560;-52
2024/03/04 04:14:04;;;;;;;;;17.50;14.00;;;;;4.45;79.54;99929.41;112386;244;40194;-58
2024/03/04 04:16:49;;;;;;;;;25.33;18.00;;;;;4.47;79.70;99933.50;112371;241;162138;-50
2024/03/04 04:19:28;;;;;;;;;24.33;18.33;;;;;4.47;79.65;99937.23;112457;244;39624;-49
2024/03/04 04:22:11;;;;;;;;;22.33;17.00;;;;;4.48;79.80;99941.39;112404;244;160718;-53
2024/03/04 04:24:45;;;;;;;;;33.00;23.00;;;;;4.45;80.00;99941.17;112441;244;40618;-53
2024/03/04 04:27:24;;;;;;;;;32.25;24.50;;;;;4.49;79.87;99936.71;112591;244;40199;-49
2024/03/04 04:30:02;;;;;;;;;22.00;15.00;;;;;4.52;79.95;99936.05;112270;242;160386;-50
2024/03/04 04:32:42;;;;;;;;;27.00;16.00;;;;;4.54;79.93;99939.23;112564;244;40193;-53
2024/03/04 04:35:20;;;;;;;;;24.33;18.33;;;;;4.54;80.09;99940.10;112324;241;160855;-54
2024/03/04 04:37:56;;;;;;;;;25.00;19.00;;;;;4.52;79.98;99943.70;112536;244;41681;-51
2024/03/04 04:40:34;;;;;;;;;16.25;13.00;;;;;4.50;80.28;99944.04;112356;241;160573;-51
2024/03/04 04:43:16;;;;;;;;;28.25;20.75;;;;;4.52;80.23;99952.80;112503;244;39714;-50
2024/03/04 04:45:54;;;;;;;;;19.00;15.00;;;;;4.52;80.38;99951.56;112391;241;161517;-52
2024/03/04 04:48:31;;;;;;;;;26.25;19.75;;;;;4.57;80.44;99954.39;112410;244;39443;-52
2024/03/04 04:51:10;;;;;;;;;21.00;16.00;;;;;4.58;80.77;99957.30;112385;244;38858;-52
2024/03/04 04:53:47;;;;;;;;;24.00;19.00;;;;;4.60;80.77;99957.84;112271;242;160793;-52
2024/03/04 04:56:22;;;;;;;;;21.75;17.00;;;;;4.63;80.84;99958.15;112512;244;40553;-54
2024/03/04 04:58:58;;;;;;;;;18.00;14.00;;;;;4.68;80.92;99957.77;112301;241;160931;-53
2024/03/04 05:01:38;;;;;;;;;34.00;26.00;;;;;4.71;80.90;99960.02;112419;244;41577;-49
2024/03/04 05:04:23;;;;;;;;;26.00;19.00;;;;;4.73;81.15;99962.67;112314;241;160805;-50
2024/03/04 05:07:06;;;;;;;;;19.00;12.25;;;;;4.74;81.24;99964.28;112448;244;40782;-50
2024/03/04 05:09:47;;;;;;;;;30.67;23.00;;;;;4.69;81.58;99962.33;112347;242;160243;-49
2024/03/04 05:12:26;;;;;;;;;25.00;19.33;;;;;4.60;81.86;99971.92;112400;244;40816;-53
2024/03/04 05:15:08;;;;;;;;;24.00;19.00;;;;;4.58;81.88;99970.00;112461;244;39296;-53
2024/03/04 05:17:48;;;;;;;;;24.75;19.00;;;;;4.60;81.91;99970.85;112290;241;161023;-49
2024/03/04 05:20:29;;;;;;;;;29.00;20.00;;;;;4.60;82.11;99971.16;112488;244;39592;-50
2024/03/04 05:23:06;;;;;;;;;27.00;18.50;;;;;4.64;82.14;99963.45;112296;241;161370;-50
2024/03/04 05:25:45;;;;;;;;;20.75;17.00;;;;;4.64;82.37;99965.59;112501;244;39699;-50
2024/03/04 05:28:28;;;;;;;;;19.33;16.00;;;;;4.66;82.34;99966.77;112393;241;161727;-52
2024/03/04 05:31:10;;;;;;;;;24.50;18.50;;;;;4.64;82.64;99964.11;112472;244;39248;-50
2024/03/04 05:33:53;;;;;;;;;40.33;29.00;;;;;4.70;82.50;99964.59;112371;241;162595;-51
2024/03/04 05:36:33;;;;;;;;;24.25;19.25;;;;;4.73;82.66;99962.09;112437;244;40068;-50
2024/03/04 05:39:11;;;;;;;;;21.00;15.50;;;;;4.74;82.59;99962.38;112476;244;39660;-50
2024/03/04 05:41:50;;;;;;;;;23.75;17.50;;;;;4.81;82.76;99958.55;112287;241;160438;-51
2024/03/04 05:44:30;;;;;;;;;29.50;22.50;;;;;4.79;82.93;99961.48;112432;244;39228;-51
2024/03/04 05:47:16;;;;;;;;;24.00;19.00;;;;;4.76;82.88;99964.85;112238;242;160573;-52
2024/03/04 05:50:01;;;;;;;;;20.00;16.00;;;;;4.70;83.10;99971.45;112385;244;42421;-52
2024/03/04 05:52:40;;;;;;;;;26.33;20.67;;;;;4.74;82.91;99974.45;112289;241;161033;-50
2024/03/04 05:55:18;;;;;;;;;21.25;16.00;;;;;4.74;83.21;99980.52;112432;244;39534;-51
2024/03/04 05:57:54;;;;;;;;;23.00;17.00;;;;;4.75;83.25;99976.83;112317;241;161684;-50
2024/03/04 06:00:34;;;;;;;;;20.50;16.25;;;;;4.81;83.33;99971.09;112370;244;39742;-50
2024/03/04 06:03:11;;;;;;;;;27.00;20.00;;;;;4.86;83.41;99979.06;112461;244;40952;-50
2024/03/04 06:05:51;;;;;;;;;24.00;18.00;;;;;4.87;83.46;99979.00;112294;242;160799;-50
2024/03/04 06:08:28;;;;;;;;;28.00;23.00;;;;;4.89;83.93;99982.31;112477;244;39771;-51
2024/03/04 06:11:03;;;;;;;;;22.00;19.00;;;;;4.87;83.94;99984.36;112336;240;161288;-53
2024/03/04 06:13:44;;;;;;;;;24.67;18.67;;;;;4.95;83.92;99983.40;112518;243;40907;-53
2024/03/04 06:16:24;;;;;;;;;23.25;16.50;;;;;5.00;83.58;99986.89;112432;240;160775;-52
2024/03/04 06:19:02;;;;;;;;;19.75;16.00;;;;;5.06;83.55;99994.20;112528;243;40644;-51
2024/03/04 06:21:42;;;;;;;;;26.00;20.00;;;;;5.09;83.56;99993.23;112465;244;39692;-53
2024/03/04 06:24:23;;;;;;;;;21.00;15.33;;;;;5.09;83.58;99998.48;112423;244;39703;-53
2024/03/04 06:27:03;;;;;;;;;31.25;24.00;;;;;5.08;83.63;99999.53;112602;244;40915;-53
2024/03/04 06:29:38;;;;;;;;;17.00;13.33;;;;;5.04;83.51;100001.96;112368;241;160310;-54
2024/03/04 06:32:12;;;;;;;;;22.00;17.00;;;;;5.02;83.62;100000.38;112547;244;39842;-54
2024/03/04 06:34:54;;;;;;;;;26.00;20.00;;;;;5.03;83.59;100001.32;112334;242;161130;-54
2024/03/04 06:37:41;;;;;;;;;19.00;14.67;;;;;5.06;83.50;100002.45;112416;244;39941;-51
2024/03/04 06:40:17;;;;;;;;;29.00;21.00;;;;;5.12;83.65;100000.48;111808;243;161422;-51
2024/03/04 06:42:54;;;;;;;;;23.50;18.00;;;;;5.18;83.62;99998.58;112414;245;40524;-51
2024/03/04 06:45:30;;;;;;;;;25.75;18.00;;;;;5.24;83.66;99996.34;112388;244;40242;-51
2024/03/04 06:48:07;;;;;;;;;23.00;17.75;;;;;5.29;83.69;99997.05;112345;242;161099;-51
2024/03/04 06:50:44;;;;;;;;;29.00;22.00;;;;;5.34;83.69;99991.52;112529;244;40946;-51
2024/03/04 06:53:24;;;;;;;;;18.50;15.00;;;;;5.36;83.55;99991.41;112295;242;161055;-53
2024/03/04 06:56:00;;;;;;;;;22.00;17.25;;;;;5.44;83.53;99988.67;112506;244;40890;-53
2024/03/04 06:58:38;;;;;;;;;31.00;23.00;;;;;5.49;83.44;99987.27;112361;240;160675;-53
2024/03/04 07:01:17;;;;;;;;;31.00;22.50;;;;;5.50;83.19;99984.08;112729;243;40558;-53
2024/03/04 07:04:01;;;;;;;;;33.50;26.00;;;;;5.59;83.11;99989.65;112808;242;160955;-53
2024/03/04 07:06:40;;;;;;;;;23.50;17.75;;;;;5.57;82.98;99989.78;112445;244;40371;-52
2024/03/04 07:09:20;;;;;;;;;22.75;16.50;;;;;5.57;82.91;99985.29;112616;244;41471;-52
2024/03/04 07:12:00;;;;;;;;;28.75;23.00;;;;;5.51;83.02;99988.30;112317;241;161621;-54
2024/03/04 07:14:36;;;;;;;;;37.75;26.50;;;;;5.50;82.97;99985.70;112516;244;39965;-54
2024/03/04 07:17:15;;;;;;;;;21.25;17.00;;;;;5.52;83.06;99982.11;112300;242;161129;-51
2024/03/04 07:19:52;;;;;;;;;26.67;19.33;;;;;5.62;82.90;99982.98;112421;244;41323;-51
2024/03/04 07:22:37;;;;;;;;;37.00;26.33;;;;;5.69;82.85;99985.89;112296;240;161438;-51
2024/03/04 07:25:12;;;;;;;;;26.33;20.67;;;;;5.76;82.76;99987.77;112447;243;39961;-52
2024/03/04 07:27:55;;;;;;;;;30.00;20.00;;;;;5.91;82.64;99991.34;112364;241;160771;-54
2024/03/04 07:30:42;;;;;;;;;20.00;16.00;;;;;6.05;82.54;99992.09;112477;244;39516;-54
2024/03/04 07:33:20;;;;;;;;;24.25;19.00;;;;;6.21;82.32;99990.64;112454;244;40599;-54
2024/03/04 07:35:55;;;;;;;;;26.00;19.25;;;;;6.20;82.06;99993.06;112303;242;160718;-51
2024/03/04 07:38:37;;;;;;;;;22.50;16.50;;;;;6.18;81.98;99996.70;112381;244;40205;-52
2024/03/04 07:41:19;;;;;;;;;31.50;23.25;;;;;6.21;81.73;99998.79;112309;244;161257;-52
2024/03/04 07:44:06;;;;;;;;;34.00;26.00;;;;;6.19;81.60;99998.55;112454;244;39274;-53
2024/03/04 07:46:48;;;;;;;;;21.00;17.00;;;;;6.21;81.58;99997.95;112286;243;161754;-60
2024/03/04 07:49:24;;;;;;;;;26.00;19.33;;;;;6.21;81.43;100002.84;112533;244;41066;-54
2024/03/04 07:52:00;;;;;;;;;26.67;21.00;;;;;6.19;81.32;100000.73;112405;240;161928;-52
2024/03/04 07:54:35;;;;;;;;;35.33;26.00;;;;;6.16;81.33;100002.96;112458;243;40494;-52
2024/03/04 07:57:13;;;;;;;;;35.67;24.67;;;;;6.18;81.22;100004.02;112549;244;40275;-53
2024/03/04 07:59:50;;;;;;;;;46.25;32.50;;;;;6.20;81.02;100007.55;112321;240;161249;-53
2024/03/04 08:02:32;;;;;;;;;31.50;23.75;;;;;6.11;81.09;100004.28;112536;244;40161;-51
2024/03/04 08:05:09;;;;;;;;;35.50;28.00;;;;;6.07;81.03;100011.34;112344;241;160738;-50
2024/03/04 08:07:47;;;;;;;;;27.00;20.50;;;;;6.09;81.06;100012.42;112569;244;39357;-53
2024/03/04 08:10:24;;;;;;;;;34.25;25.25;;;;;6.07;81.10;100011.19;112394;242;160885;-53
2024/03/04 08:13:06;;;;;;;;;30.50;23.50;;;;;6.10;81.06;100013.88;112370;245;39781;-51
2024/03/04 08:15:48;;;;;;;;;26.00;17.67;;;;;6.08;81.02;100017.89;112290;240;161738;-51
2024/03/04 08:18:24;;;;;;;;;19.25;14.25;;;;;6.09;80.98;100018.41;112433;243;41143;-53
2024/03/04 08:20:58;;;;;;;;;26.75;18.75;;;;;6.12;80.84;100024.05;112566;244;40757;-52
2024/03/04 08:23:37;;;;;;;;;25.33;19.67;;;;;6.14;80.86;100027.02;112258;241;161634;-51
2024/03/04 08:26:19;;;;;;;;;41.25;28.25;;;;;6.21;80.82;100029.56;112533;244;39654;-51
2024/03/04 08:28:58;;;;;;;;;32.50;25.25;;;;;6.19;80.84;100031.81;112295;241;160774;-50
2024/03/04 08:31:40;;;;;;;;;32.00;24.00;;;;;6.18;80.80;100033.02;112479;244;39436;-53
2024/03/04 08:34:17;;;;;;;;;30.00;23.00;;;;;6.16;80.76;100034.84;112355;241;161033;-52
2024/03/04 08:36:56;;;;;;;;;26.50;21.00;;;;;6.12;80.60;100037.44;112442;244;39546;-53
2024/03/04 08:39:35;;;;;;;;;35.50;23.25;;;;;6.11;80.61;100034.01;112503;244;41005;-53
2024/03/04 08:42:12;;;;;;;;;28.50;22.00;;;;;6.15;80.69;100030.98;112444;244;39967;-49
2024/03/04 08:44:49;;;;;;;;;38.00;27.00;;;;;6.16;80.76;100029.95;112570;244;39768;-49
2024/03/04 08:47:27;;;;;;;;;32.00;24.00;;;;;6.17;80.73;100032.58;112375;241;161161;-51
2024/03/04 08:50:06;;;;;;;;;28.75;20.75;;;;;6.13;80.81;100029.40;112419;244;39391;-50
2024/03/04 08:52:46;;;;;;;;;42.00;28.50;;;;;6.14;80.81;100032.89;112412;241;161585;-50
2024/03/04 08:55:27;;;;;;;;;29.00;23.00;;;;;6.07;81.16;100031.53;112523;244;39684;-50
2024/03/04 08:58:06;;;;;;;;;26.00;22.00;;;;;6.14;81.22;100030.02;112478;242;163703;-53
2024/03/04 09:00:46;;;;;;;;;25.33;20.33;;;;;6.17;81.19;100034.14;112475;244;39669;-53
2024/03/04 09:03:23;;;;;;;;;30.25;23.50;;;;;6.27;81.26;100034.09;112502;244;39650;-50
2024/03/04 09:06:04;;;;;;;;;33.25;26.00;;;;;6.36;81.25;100034.15;112327;241;161382;-50
2024/03/04 09:08:43;;;;;;;;;37.50;28.00;;;;;6.40;81.15;100030.63;112472;244;40406;-50
2024/03/04 09:11:24;;;;;;;;;31.25;24.50;;;;;6.49;81.05;100028.69;112297;242;161818;-50
2024/03/04 09:14:04;;;;;;;;;32.25;24.75;;;;;6.61;81.23;100025.85;112438;244;40762;-50
2024/03/04 09:16:44;;;;;;;;;39.50;30.00;;;;;6.67;81.09;100024.40;112335;241;160617;-52
2024/03/04 09:19:24;;;;;;;;;35.50;28.00;;;;;6.67;80.84;100025.52;112433;244;40317;-52
2024/03/04 09:22:05;;;;;;;;;41.50;29.25;;;;;6.64;80.74;100026.86;112345;241;160789;-51
2024/03/04 09:24:45;;;;;;;;;33.00;25.00;;;;;6.61;80.67;100029.09;112414;244;39244;-50
2024/03/04 09:27:27;;;;;;;;;34.00;25.00;;;;;6.65;80.73;100029.77;112491;244;39838;-50
2024/03/04 09:30:06;;;;;;;;;39.00;29.50;;;;;6.62;80.58;100029.12;112267;241;161291;-50
2024/03/04 09:32:42;;;;;;;;;37.00;28.00;;;;;6.48;80.72;100037.48;112563;244;39548;-51
2024/03/04 09:35:17;;;;;;;;;27.50;21.00;;;;;6.44;80.84;100039.11;112360;242;161637;-50
2024/03/04 09:37:58;;;;;;;;;40.00;27.00;;;;;6.49;80.66;100045.54;112528;244;39840;-54
2024/03/04 09:40:45;;;;;;;;;48.25;36.00;;;;;6.54;80.68;100038.55;112338;241;160673;-53
2024/03/04 09:43:27;;;;;;;;;29.00;23.75;;;;;6.61;80.84;100042.98;112514;244;39689;-50
2024/03/04 09:46:05;;;;;;;;;33.00;23.00;;;;;6.69;80.78;100043.69;112382;241;161797;-53
2024/03/04 09:48:45;;;;;;;;;34.75;24.50;;;;;6.68;80.55;100048.09;112475;244;39039;-54
2024/03/04 09:51:29;;;;;;;;;37.00;26.00;;;;;6.58;80.57;100048.32;112551;244;39335;-52
2024/03/04 09:54:09;;;;;;;;;33.75;22.25;;;;;6.53;80.77;100047.47;112272;241;160535;-52
2024/03/04 09:56:51;;;;;;;;;39.25;27.00;;;;;6.47;80.68;100045.97;112534;244;39227;-52
2024/03/04 09:59:33;;;;;;;;;35.00;25.00;;;;;6.53;80.72;100044.21;112257;241;161916;-52
2024/03/04 10:02:18;;;;;;;;;37.75;27.00;;;;;6.62;80.67;100047.54;112437;244;39448;-53
2024/03/04 10:05:02;;;;;;;;;41.50;30.50;;;;;6.74;80.72;100037.06;112296;241;161706;-54
2024/03/04 10:07:51;;;;;;;;;42.00;31.00;;;;;6.93;80.47;100038.06;112452;244;39576;-50
2024/03/04 10:10:29;;;;;;;;;36.67;26.33;;;;;7.13;80.48;100035.91;112248;242;161077;-50
2024/03/04 10:13:09;;;;;;;;;38.67;29.33;;;;;7.26;80.14;100036.68;112463;244;41575;-51
2024/03/04 10:15:54;;;;;;;;;42.75;32.25;;;;;7.25;79.64;100033.72;112523;244;41038;-50
2024/03/04 10:18:36;;;;;;;;;40.50;30.00;;;;;7.41;79.50;100033.89;112384;244;39189;-50
2024/03/04 10:21:19;;;;;;;;;40.75;29.25;;;;;7.39;79.29;100033.45;112556;244;40663;-54
2024/03/04 10:23:54;;;;;;;;;39.25;29.00;;;;;7.45;79.00;100037.88;112323;241;160940;-54
2024/03/04 10:26:39;;;;;;;;;45.00;34.00;;;;;7.39;78.86;100042.38;112598;244;38973;-49
2024/03/04 10:29:22;;;;;;;;;36.33;26.33;;;;;7.40;78.67;100054.44;112357;242;161050;-50
2024/03/04 10:32:07;;;;;;;;;41.50;31.00;;;;;7.38;78.51;100054.92;112414;245;39611;-51
2024/03/04 10:34:46;;;;;;;;;29.50;23.25;;;;;7.35;78.37;100057.92;112268;242;162193;-52
2024/03/04 10:37:25;;;;;;;;;38.00;26.75;;;;;7.28;78.48;100063.58;112376;244;40804;-53
2024/03/04 10:40:04;;;;;;;;;35.50;24.00;;;;;7.29;78.50;100066.25;112258;242;161615;-53
2024/03/04 10:42:45;;;;;;;;;31.00;24.00;;;;;7.17;78.31;100072.73;112421;244;39682;-54
2024/03/04 10:45:23;;;;;;;;;37.50;27.00;;;;;7.06;78.30;100071.80;112461;244;40052;-54
2024/03/04 10:47:57;;;;;;;;;33.75;25.00;;;;;6.93;78.44;100069.05;112314;244;161096;-56
2024/03/04 10:50:36;;;;;;;;;36.00;27.50;;;;;6.98;78.68;100064.45;112471;244;39660;-53
2024/03/04 10:53:17;;;;;;;;;35.00;24.67;;;;;7.03;78.68;100063.73;112284;241;160780;-50
2024/03/04 10:56:03;;;;;;;;;41.33;32.00;;;;;7.11;78.74;100066.73;112479;244;39978;-53
2024/03/04 10:58:52;;;;;;;;;40.00;30.00;;;;;7.12;78.60;100061.20;112332;241;160682;-54
2024/03/04 11:01:34;;;;;;;;;38.50;29.00;;;;;7.18;78.58;100061.27;112478;244;40411;-53
2024/03/04 11:04:18;;;;;;;;;37.50;29.00;;;;;7.15;78.52;100057.66;112366;242;160978;-53
2024/03/04 11:07:09;;;;;;;;;43.00;32.00;;;;;7.17;78.51;100056.58;112429;244;39580;-50
2024/03/04 11:09:55;;;;;;;;;42.00;29.75;;;;;7.17;78.46;100057.35;112536;244;40794;-53
2024/03/04 11:12:38;;;;;;;;;39.50;29.25;;;;;7.16;78.53;100053.66;112447;244;39515;-50
2024/03/04 11:15:26;;;;;;;;;31.25;25.00;;;;;7.25;78.21;100054.34;112574;244;41085;-50
2024/03/04 11:18:07;;;;;;;;;30.50;23.25;;;;;7.22;78.08;100052.96;112387;242;161583;-53
2024/03/04 11:20:46;;;;;;;;;33.00;24.00;;;;;7.19;78.25;100061.16;112453;244;39503;-54
2024/03/04 11:23:26;;;;;;;;;39.75;29.50;;;;;7.29;78.09;100061.27;112283;242;161175;-54
2024/03/04 11:26:03;;;;;;;;;34.50;26.00;;;;;7.29;78.14;100057.84;112451;243;39769;-50
2024/03/04 11:28:44;;;;;;;;;34.00;26.00;;;;;7.32;78.02;100051.92;112240;243;161313;-49
2024/03/04 11:31:31;;;;;;;;;31.75;24.50;;;;;7.33;78.04;100052.02;112469;244;40103;-52
2024/03/04 11:34:08;;;;;;;;;47.00;35.00;;;;;7.40;77.88;100050.17;112274;241;160914;-53
2024/03/04 11:36:50;;;;;;;;;33.50;24.00;;;;;7.42;77.71;100053.52;112433;244;40042;-50
2024/03/04 11:39:27;;;;;;;;;36.00;27.00;;;;;7.39;77.49;100048.83;112530;244;39455;-50
2024/03/04 11:42:07;;;;;;;;;41.00;31.00;;;;;7.41;77.61;100045.52;112289;241;161756;-52
2024/03/04 11:44:47;;;;;;;;;35.00;25.25;;;;;7.46;77.58;100044.21;112524;244;39133;-53
2024/03/04 11:47:29;;;;;;;;;38.50;29.50;;;;;7.55;77.47;100040.59;112329;241;161337;-51
2024/03/04 11:50:44;;;;;;;;;30.00;23.50;;;;;7.67;77.50;100041.88;112477;244;39975;-50
2024/03/04 11:53:38;;;;;;;;;50.00;35.67;;;;;7.77;77.15;100032.83;112324;241;161554;-50
2024/03/04 11:56:21;;;;;;;;;37.00;28.00;;;;;7.89;77.47;100030.92;112540;244;39427;-53
2024/03/04 11:59:01;;;;;;;;;43.00;33.00;;;;;8.06;77.23;100032.38;112323;241;160569;-52
2024/03/04 12:01:43;;;;;;;;;37.00;28.00;;;;;8.02;76.50;100031.84;112532;244;41368;-50
2024/03/04 12:04:28;;;;;;;;;42.50;31.75;;;;;7.87;76.58;100027.24;112390;241;161360;-50
2024/03/04 12:07:07;;;;;;;;;28.50;22.25;;;;;7.95;76.41;100027.48;112487;244;39948;-54
2024/03/04 12:09:47;;;;;;;;;43.75;32.50;;;;;7.92;76.15;100027.83;112606;244;40259;-53
2024/03/04 12:12:27;;;;;;;;;40.50;31.00;;;;;7.90;76.07;100020.05;112506;242;40182;-53
2024/03/04 12:15:09;;;;;;;;;43.33;32.00;;;;;7.91;76.15;100014.63;112594;244;40453;-53
2024/03/04 12:17:44;;;;;;;;;40.00;30.00;;;;;7.88;75.86;100015.05;112332;244;160863;-50